Time;durP1;ratioP1;P1;durP2;ratioP2;P2;SDS_P1;SDS_P2;PMS_P1;PMS_P2;Temp;Humidity;BMP_temperature;BMP_pressure;BME280_temperature;BME280_humidity;BME280_pressure;Samples;Min_cycle;Max_cycle;Signal;HPM_P1;HPM_P2
2022/05/12 00:00:57;;;;;;;;;;;24.70;44.50;;;;;;860903;23;1133;-83
2022/05/12 00:01:26;;;;;;;;;;;25.40;44.80;;;;;;856040;23;1342;-87
2022/05/12 00:01:50;;;;;;;;;;;24.80;45.40;;;;;;852553;23;1453;-84
2022/05/12 00:02:18;;;;;;;;;;;24.70;45.40;;;;;;850901;23;1488;-80
2022/05/12 00:02:54;;;;;;;;;;;24.80;46.00;;;;;;851751;23;1231;-81
2022/05/12 00:04:14;;;;;;;;;;;24.70;44.20;;;;;;857986;22;1798;-80
2022/05/12 00:04:42;;;;;;;;;;;23.70;45.50;;;;;;856121;23;1262;-81
2022/05/12 00:05:16;;;;;;;;;;;25.20;44.50;;;;;;850724;23;1592;-82
2022/05/12 00:05:45;;;;;;;;;;;25.60;44.90;;;;;;850709;23;1277;-80
2022/05/12 00:06:15;;;;;;;;;;;24.80;45.20;;;;;;848082;23;1208;-82
2022/05/12 00:06:47;;;;;;;;;;;23.50;43.50;;;;;;846995;23;1169;-82
2022/05/12 00:11:40;;;;;;;;;;;25.00;44.30;;;;;;852707;22;1907;31
2022/05/12 00:14:32;;;;;;;;;;;24.80;44.20;;;;;;862751;22;1337;-81
2022/05/12 00:19:51;;;;;;;;;;;24.80;44.40;;;;;;864785;22;1066;-89
2022/05/12 00:20:32;;;;;;;;;;;24.90;44.60;;;;;;857373;23;1298;-84
2022/05/12 00:20:56;;;;;;;;;;;24.70;44.40;;;;;;856092;23;1301;-82
2022/05/12 00:21:27;;;;;;;;;;;24.40;45.50;;;;;;856067;23;1255;-81
2022/05/12 00:21:54;;;;;;;;;;;25.10;44.70;;;;;;850027;23;1404;-92
2022/05/12 00:22:27;;;;;;;;;;;24.70;44.20;;;;;;853389;23;1244;-82
2022/05/12 00:23:13;;;;;;;;;;;23.60;43.70;;;;;;848482;23;1114;-81
2022/05/12 00:23:39;;;;;;;;;;;23.50;43.60;;;;;;832964;23;1407;-83
2022/05/12 00:24:02;;;;;;;;;;;24.70;45.70;;;;;;843624;23;1257;-82
2022/05/12 00:24:43;;;;;;;;;;;24.60;44.50;;;;;;853405;23;2146;-82
2022/05/12 00:28:40;;;;;;;;;;;24.70;44.60;;;;;;861352;22;1618;31
2022/05/12 00:29:08;;;;;;;;;;;24.70;44.70;;;;;;856147;23;1164;-80
2022/05/12 00:30:54;;;;;;;;;;;24.70;46.00;;;;;;858735;22;1881;-83
2022/05/12 00:31:24;;;;;;;;;;;24.70;44.60;;;;;;857107;23;1197;-84
2022/05/12 00:31:46;;;;;;;;;;;24.70;45.00;;;;;;857475;23;1093;-80
2022/05/12 00:32:18;;;;;;;;;;;24.60;46.60;;;;;;851057;23;1349;-82
2022/05/12 00:33:02;;;;;;;;;;;24.60;46.30;;;;;;844961;23;1265;-81
2022/05/12 00:36:56;;;;;;;;;;;24.70;44.60;;;;;;858824;22;1711;-82
2022/05/12 00:41:22;;;;;;;;;;;24.70;44.60;;;;;;863487;22;1728;-80
2022/05/12 00:41:59;;;;;;;;;;;24.40;44.30;;;;;;852593;23;1287;-83
2022/05/12 00:52:51;;;;;;;;;;;24.60;44.70;;;;;;861133;22;1147;-79
2022/05/12 00:59:13;;;;;;;;;;;24.60;44.70;;;;;;859827;22;1981;-81
2022/05/12 00:59:53;;;;;;;;;;;24.50;44.60;;;;;;857489;23;1470;-81
2022/05/12 01:00:29;;;;;;;;;;;23.50;44.20;;;;;;854626;23;1119;-81
2022/05/12 01:02:32;;;;;;;;;;;;;;;;;;;;;
2022/05/12 01:04:47;;;;;;;;;;;24.60;44.70;;;;;;865253;22;1180;-83
2022/05/12 01:05:46;;;;;;;;;;;;;;;;;;;;;
2022/05/12 01:07:55;;;;;;;;;;;24.50;44.80;;;;;;865503;22;1312;-81
2022/05/12 01:09:44;;;;;;;;;;;24.60;44.80;;;;;;857592;22;2154;-81
2022/05/12 01:11:32;;;;;;;;;;;24.50;46.50;;;;;;841249;23;876;-82
2022/05/12 01:12:16;;;;;;;;;;;24.50;46.30;;;;;;836020;23;1250;-95
2022/05/12 01:13:03;;;;;;;;;;;24.60;46.10;;;;;;832464;23;1131;-85
2022/05/12 01:13:40;;;;;;;;;;;24.50;46.40;;;;;;824582;24;1183;-81
2022/05/12 01:14:07;;;;;;;;;;;24.20;44.40;;;;;;824766;23;1219;-81
2022/05/12 01:16:05;;;;;;;;;;;24.50;44.50;;;;;;858059;22;1629;-82
2022/05/12 01:16:36;;;;;;;;;;;22.50;45.60;;;;;;857818;22;1333;-81
2022/05/12 01:17:03;;;;;;;;;;;23.90;44.30;;;;;;854889;23;1287;-82
2022/05/12 01:17:24;;;;;;;;;;;25.10;45.00;;;;;;852524;23;1287;-83
2022/05/12 01:17:53;;;;;;;;;;;24.50;47.40;;;;;;847506;23;1485;-82
2022/05/12 01:18:26;;;;;;;;;;;22.90;44.00;;;;;;849013;23;1008;-87
2022/05/12 01:18:50;;;;;;;;;;;24.60;46.70;;;;;;850564;23;1372;-84
2022/05/12 01:20:57;;;;;;;;;;;24.50;44.80;;;;;;860051;22;1880;-80
2022/05/12 01:21:31;;;;;;;;;;;24.50;45.60;;;;;;856725;23;1353;-80
2022/05/12 01:22:24;;;;;;;;;;;24.50;45.00;;;;;;852593;23;1288;-96
2022/05/12 01:22:55;;;;;;;;;;;24.70;45.00;;;;;;834719;23;1265;-82
2022/05/12 01:23:27;;;;;;;;;;;24.50;46.80;;;;;;836869;23;1296;-85
2022/05/12 01:23:51;;;;;;;;;;;24.50;44.60;;;;;;836171;23;1284;-82
2022/05/12 01:24:38;;;;;;;;;;;24.50;48.60;;;;;;836506;23;1206;-96
2022/05/12 01:25:09;;;;;;;;;;;23.70;44.30;;;;;;836320;23;1426;-82
2022/05/12 01:25:35;;;;;;;;;;;22.70;43.70;;;;;;833007;23;1141;-83
2022/05/12 01:27:22;;;;;;;;;;;24.10;44.40;;;;;;818361;24;1619;-82
2022/05/12 01:27:56;;;;;;;;;;;24.60;45.90;;;;;;816859;24;1157;-82
2022/05/12 01:28:32;;;;;;;;;;;;;;;;;;;;;
2022/05/12 01:28:56;;;;;;;;;;;24.60;46.00;;;;;;820596;24;1325;-81
2022/05/12 01:29:21;;;;;;;;;;;24.60;45.60;;;;;;820526;24;1198;-81
2022/05/12 01:29:48;;;;;;;;;;;24.50;46.10;;;;;;816921;24;1211;-82
2022/05/12 01:30:15;;;;;;;;;;;24.50;45.20;;;;;;816337;24;1264;-81
2022/05/12 01:37:35;;;;;;;;;;;24.60;44.60;;;;;;859444;22;1982;-82
2022/05/12 01:38:13;;;;;;;;;;;24.60;45.70;;;;;;851342;23;1359;-94
2022/05/12 01:38:38;;;;;;;;;;;24.70;44.60;;;;;;852666;23;1224;-82
2022/05/12 01:39:05;;;;;;;;;;;23.30;43.90;;;;;;847710;23;1425;-81
2022/05/12 01:39:30;;;;;;;;;;;23.70;44.10;;;;;;847464;23;1178;-95
2022/05/12 01:39:53;;;;;;;;;;;22.60;45.20;;;;;;848118;23;1219;-82
2022/05/12 01:40:21;;;;;;;;;;;24.50;46.40;;;;;;847370;23;1494;-82
2022/05/12 01:41:58;;;;;;;;;;;23.40;43.90;;;;;;840582;23;1327;-81
2022/05/12 01:42:26;;;;;;;;;;;23.20;43.70;;;;;;839992;23;1309;-83
2022/05/12 01:43:10;;;;;;;;;;;24.70;46.30;;;;;;840424;23;1321;-82
2022/05/12 01:43:38;;;;;;;;;;;24.70;44.60;;;;;;840302;23;1170;-82
2022/05/12 01:44:12;;;;;;;;;;;24.60;46.30;;;;;;836390;23;1185;-81
2022/05/12 01:44:59;;;;;;;;;;;24.60;46.70;;;;;;836357;23;1462;-94
2022/05/12 01:46:02;;;;;;;;;;;;;;;;;;;;;
2022/05/12 01:49:27;;;;;;;;;;;24.70;44.60;;;;;;863180;22;1678;-80
2022/05/12 01:49:50;;;;;;;;;;;25.40;45.10;;;;;;858272;23;1428;-80
2022/05/12 01:50:40;;;;;;;;;;;24.60;45.70;;;;;;860497;23;1262;-80
2022/05/12 01:51:07;;;;;;;;;;;24.70;44.60;;;;;;860675;23;1546;-92
2022/05/12 01:51:35;;;;;;;;;;;24.70;44.60;;;;;;854890;23;1322;-80
2022/05/12 01:52:17;;;;;;;;;;;25.50;45.00;;;;;;855697;23;1247;-81
2022/05/12 01:52:49;;;;;;;;;;;25.70;45.30;;;;;;847788;23;1306;-81
2022/05/12 01:53:31;;;;;;;;;;;24.60;46.40;;;;;;848633;23;1267;-94
2022/05/12 01:53:55;;;;;;;;;;;24.80;44.70;;;;;;847919;23;1909;-82
2022/05/12 01:54:20;;;;;;;;;;;24.70;46.40;;;;;;843991;23;1299;-83
2022/05/12 01:54:55;;;;;;;;;;;24.70;46.90;;;;;;844119;23;1367;-80
2022/05/12 01:55:48;;;;;;;;;;;24.30;44.30;;;;;;843268;23;1339;-80
2022/05/12 02:01:25;;;;;;;;;;;24.70;44.40;;;;;;860790;22;1725;-84
2022/05/12 02:01:53;;;;;;;;;;;23.90;44.00;;;;;;856393;23;1323;-81
2022/05/12 02:02:16;;;;;;;;;;;23.80;44.20;;;;;;852021;23;1180;-83
2022/05/12 02:03:25;;;;;;;;;;;25.90;46.20;;;;;;848957;23;616;-82
2022/05/12 02:03:51;;;;;;;;;;;24.70;45.70;;;;;;852101;23;1235;-83
2022/05/12 02:04:19;;;;;;;;;;;24.60;46.20;;;;;;851250;23;1304;-81
2022/05/12 02:04:48;;;;;;;;;;;24.60;46.00;;;;;;848010;23;1328;-93
2022/05/12 02:05:19;;;;;;;;;;;23.30;45.30;;;;;;848307;23;1321;-82
2022/05/12 02:05:46;;;;;;;;;;;24.70;44.60;;;;;;850498;23;1287;-83
2022/05/12 02:06:09;;;;;;;;;;;23.50;43.90;;;;;;848516;23;1270;-83
2022/05/12 02:06:35;;;;;;;;;;;24.60;46.50;;;;;;844761;23;1218;-82
2022/05/12 02:07:14;;;;;;;;;;;26.10;45.40;;;;;;844304;23;1427;-82
2022/05/12 02:08:03;;;;;;;;;;;22.90;45.30;;;;;;844115;23;1396;-82
2022/05/12 02:08:55;;;;;;;;;;;24.60;44.60;;;;;;853116;23;1675;-82
2022/05/12 02:09:24;;;;;;;;;;;24.70;48.50;;;;;;856708;23;1210;-82
2022/05/12 02:09:53;;;;;;;;;;;25.30;45.10;;;;;;856170;23;1125;-82
2022/05/12 02:10:58;;;;;;;;;;;24.60;46.70;;;;;;851052;23;1077;-96
2022/05/12 02:11:51;;;;;;;;;;;24.80;44.70;;;;;;859583;22;2033;-80
2022/05/12 02:12:14;;;;;;;;;;;24.80;44.80;;;;;;858166;23;1273;-80
2022/05/12 02:12:48;;;;;;;;;;;24.50;47.90;;;;;;856478;23;1235;-81
2022/05/12 02:13:17;;;;;;;;;;;24.60;47.10;;;;;;852767;23;1307;-80
2022/05/12 02:13:40;;;;;;;;;;;24.70;44.70;;;;;;852352;23;1172;-80
2022/05/12 02:14:06;;;;;;;;;;;24.50;48.00;;;;;;849073;23;2001;-80
2022/05/12 02:14:39;;;;;;;;;;;24.50;45.60;;;;;;851629;23;1435;-80
2022/05/12 02:15:13;;;;;;;;;;;23.50;44.00;;;;;;850932;23;1232;-80
2022/05/12 02:15:37;;;;;;;;;;;24.60;46.90;;;;;;855380;23;1295;-81
2022/05/12 02:17:48;;;;;;;;;;;24.60;44.50;;;;;;856086;22;1886;-80
2022/05/12 02:18:15;;;;;;;;;;;24.40;44.50;;;;;;853675;23;1199;-80
2022/05/12 02:18:43;;;;;;;;;;;26.70;46.10;;;;;;847764;23;1323;-90
2022/05/12 02:19:09;;;;;;;;;;;24.50;47.90;;;;;;844978;23;1291;-85
2022/05/12 02:19:32;;;;;;;;;;;24.70;45.90;;;;;;844729;23;1268;-89
2022/05/12 02:19:56;;;;;;;;;;;24.60;46.20;;;;;;845719;23;1217;-91
2022/05/12 02:20:27;;;;;;;;;;;24.60;46.30;;;;;;849932;23;1503;-89
2022/05/12 02:21:08;;;;;;;;;;;24.50;47.60;;;;;;849793;23;1641;-82
2022/05/12 02:22:03;;;;;;;;;;;24.60;44.60;;;;;;854755;23;1600;-92
2022/05/12 02:22:45;;;;;;;;;;;24.50;46.70;;;;;;850909;23;1324;-81
2022/05/12 02:23:10;;;;;;;;;;;24.50;44.60;;;;;;851980;23;1292;-82
2022/05/12 02:23:41;;;;;;;;;;;23.90;45.50;;;;;;854773;23;1338;-80
2022/05/12 02:24:05;;;;;;;;;;;24.50;45.30;;;;;;852405;23;1184;-92
2022/05/12 02:25:58;;;;;;;;;;;24.50;44.50;;;;;;850289;22;2136;-83
2022/05/12 02:26:26;;;;;;;;;;;24.50;46.20;;;;;;847256;23;1272;-81
2022/05/12 02:26:46;;;;;;;;;;;23.10;43.70;;;;;;848576;23;1351;-82
2022/05/12 02:27:31;;;;;;;;;;;24.50;47.40;;;;;;843717;23;1314;-88
2022/05/12 02:27:55;;;;;;;;;;;24.60;44.60;;;;;;843609;23;1280;-81
2022/05/12 02:28:21;;;;;;;;;;;24.50;45.30;;;;;;847387;23;1291;-83
2022/05/12 02:28:44;;;;;;;;;;;24.90;44.50;;;;;;839047;23;1302;-83
2022/05/12 02:29:08;;;;;;;;;;;24.50;46.80;;;;;;838893;23;1361;-85
2022/05/12 02:30:10;;;;;;;;;;;24.50;44.60;;;;;;845171;23;1409;-87
2022/05/12 02:31:06;;;;;;;;;;;24.50;44.30;;;;;;863867;22;1390;-82
2022/05/12 02:33:00;;;;;;;;;;;24.00;44.20;;;;;;852611;23;1226;-81
2022/05/12 02:34:23;;;;;;;;;;;24.50;44.60;;;;;;864193;22;1666;-81
2022/05/12 02:35:01;;;;;;;;;;;24.00;43.90;;;;;;860209;22;1141;-80
2022/05/12 02:35:27;;;;;;;;;;;25.80;45.40;;;;;;853433;23;1464;-80
2022/05/12 02:35:58;;;;;;;;;;;24.50;45.80;;;;;;856048;23;1319;-80
2022/05/12 02:37:48;;;;;;;;;;;24.40;44.50;;;;;;862929;22;1298;-81
2022/05/12 02:38:15;;;;;;;;;;;24.90;44.80;;;;;;859380;23;1364;-84
2022/05/12 02:38:41;;;;;;;;;;;24.40;46.00;;;;;;853225;23;1260;-81
2022/05/12 02:39:31;;;;;;;;;;;26.20;45.60;;;;;;851014;23;1291;-82
2022/05/12 02:40:12;;;;;;;;;;;24.70;44.60;;;;;;851193;23;1273;-95
2022/05/12 02:40:39;;;;;;;;;;;24.50;44.70;;;;;;849585;23;1184;-82
2022/05/12 02:41:08;;;;;;;;;;;24.40;45.60;;;;;;847934;23;1172;-82
2022/05/12 02:41:33;;;;;;;;;;;25.00;44.60;;;;;;847720;23;1252;-85
2022/05/12 02:42:02;;;;;;;;;;;24.40;45.90;;;;;;847536;23;1208;-81
2022/05/12 02:43:29;;;;;;;;;;;24.40;44.20;;;;;;856076;22;1782;-80
2022/05/12 02:43:49;;;;;;;;;;;24.60;44.40;;;;;;853566;23;1341;-82
2022/05/12 02:44:16;;;;;;;;;;;24.40;44.80;;;;;;848972;23;1239;-83
2022/05/12 02:44:41;;;;;;;;;;;24.40;44.50;;;;;;847483;23;1164;-82
2022/05/12 02:45:07;;;;;;;;;;;23.60;45.00;;;;;;843938;23;1292;-82
2022/05/12 02:46:03;;;;;;;;;;;;;;;;;;;;;
2022/05/12 02:46:34;;;;;;;;;;;24.40;46.00;;;;;;845417;23;1252;-81
2022/05/12 02:47:09;;;;;;;;;;;24.40;44.40;;;;;;850558;23;1200;-81
2022/05/12 02:47:43;;;;;;;;;;;26.50;45.60;;;;;;848421;23;1329;-81
2022/05/12 02:48:11;;;;;;;;;;;24.40;46.90;;;;;;843907;23;1201;-81
2022/05/12 02:49:09;;;;;;;;;;;24.40;44.10;;;;;;855241;23;1714;-80
2022/05/12 02:49:33;;;;;;;;;;;22.40;44.60;;;;;;852280;23;1235;-81
2022/05/12 02:49:54;;;;;;;;;;;24.30;44.20;;;;;;847845;23;1267;-81
2022/05/12 02:50:25;;;;;;;;;;;;;;;;;;;;;
2022/05/12 02:50:49;;;;;;;;;;;24.30;44.60;;;;;;843982;23;1184;-82
2022/05/12 02:51:13;;;;;;;;;;;24.30;46.20;;;;;;843651;23;1232;-82
2022/05/12 02:52:21;;;;;;;;;;;24.40;44.30;;;;;;848684;23;636;-81
2022/05/12 02:52:46;;;;;;;;;;;24.30;45.30;;;;;;843499;23;1233;-81
2022/05/12 02:53:12;;;;;;;;;;;24.30;45.10;;;;;;842661;23;1224;-81
2022/05/12 02:53:41;;;;;;;;;;;24.30;44.00;;;;;;847941;23;1212;-81
2022/05/12 02:54:08;;;;;;;;;;;24.40;47.00;;;;;;844566;23;1939;-81
2022/05/12 02:55:10;;;;;;;;;;;24.40;44.10;;;;;;848758;23;1832;-81
2022/05/12 02:55:59;;;;;;;;;;;24.70;44.40;;;;;;847681;23;1298;-82
2022/05/12 02:57:15;;;;;;;;;;;24.40;44.40;;;;;;855408;22;1800;-83
2022/05/12 02:58:17;;;;;;;;;;;24.30;45.60;;;;;;846993;23;1234;-95
2022/05/12 02:58:41;;;;;;;;;;;24.50;44.40;;;;;;850611;23;1294;-85
2022/05/12 02:59:55;;;;;;;;;;;24.30;44.90;;;;;;840207;23;1460;-82
2022/05/12 03:00:22;;;;;;;;;;;24.40;47.10;;;;;;835471;23;1222;-95
2022/05/12 03:03:29;;;;;;;;;;;24.40;44.40;;;;;;862357;22;1609;-80
2022/05/12 03:04:10;;;;;;;;;;;22.40;43.20;;;;;;856368;23;1295;-80
2022/05/12 03:05:02;;;;;;;;;;;24.40;44.20;;;;;;856051;23;1390;-80
2022/05/12 03:05:32;;;;;;;;;;;24.40;47.10;;;;;;852052;22;1548;-82
2022/05/12 03:06:10;;;;;;;;;;;24.40;44.30;;;;;;847986;23;1195;-81
2022/05/12 03:06:37;;;;;;;;;;;25.10;44.80;;;;;;844385;23;1120;-80
2022/05/12 03:07:04;;;;;;;;;;;24.30;46.00;;;;;;840183;23;1407;-81
2022/05/12 03:09:02;;;;;;;;;;;24.40;45.80;;;;;;837544;23;1516;-81
2022/05/12 03:09:33;;;;;;;;;;;24.30;44.20;;;;;;830497;23;1294;-81
2022/05/12 03:09:59;;;;;;;;;;;24.10;44.30;;;;;;825564;23;1608;-80
2022/05/12 03:11:05;;;;;;;;;;;23.40;43.80;;;;;;856157;22;1826;-80
2022/05/12 03:12:23;;;;;;;;;;;24.40;44.30;;;;;;854836;22;1665;-82
2022/05/12 03:12:58;;;;;;;;;;;22.90;43.40;;;;;;847976;23;1293;-83
2022/05/12 03:14:17;;;;;;;;;;;22.70;43.20;;;;;;856776;23;830;-82
2022/05/12 03:15:20;;;;;;;;;;;24.30;44.10;;;;;;851554;23;1319;-82
2022/05/12 03:15:43;;;;;;;;;;;24.50;44.10;;;;;;836383;23;1308;-82
2022/05/12 03:16:04;;;;;;;;;;;24.40;45.50;;;;;;831550;23;1313;-79
2022/05/12 03:16:25;;;;;;;;;;;24.50;46.80;;;;;;833003;23;1297;-82
2022/05/12 03:17:45;;;;;;;;;;;24.50;45.10;;;;;;832073;23;1345;-91
2022/05/12 03:18:11;;;;;;;;;;;24.50;44.10;;;;;;824343;24;1114;-86
2022/05/12 03:20:40;;;;;;;;;;;24.50;44.00;;;;;;853322;23;1396;-80
2022/05/12 03:21:04;;;;;;;;;;;25.40;44.50;;;;;;857086;23;1206;-80
2022/05/12 03:22:21;;;;;;;;;;;24.50;44.00;;;;;;852979;23;1226;-80
2022/05/12 03:22:51;;;;;;;;;;;24.50;45.60;;;;;;851686;23;1129;-80
2022/05/12 03:23:35;;;;;;;;;;;25.10;44.30;;;;;;844537;23;1273;-82
2022/05/12 03:24:23;;;;;;;;;;;24.50;43.90;;;;;;841437;23;1397;-82
2022/05/12 03:24:55;;;;;;;;;;;23.00;43.10;;;;;;840799;23;1300;-82
2022/05/12 03:25:38;;;;;;;;;;;25.90;44.70;;;;;;846430;23;1285;-83
2022/05/12 03:27:24;;;;;;;;;;;;;;;;;;;;;
2022/05/12 03:28:06;;;;;;;;;;;24.50;43.80;;;;;;864825;22;1272;-81
2022/05/12 03:29:07;;;;;;;;;;;25.20;44.20;;;;;;859193;23;1438;-81
2022/05/12 03:31:10;;;;;;;;;;;24.50;43.60;;;;;;857899;22;1869;-80
2022/05/12 03:32:10;;;;;;;;;;;24.50;45.60;;;;;;855313;23;1092;-86
2022/05/12 03:33:03;;;;;;;;;;;24.40;43.60;;;;;;854221;22;1827;31
2022/05/12 03:33:35;;;;;;;;;;;24.50;43.60;;;;;;850814;23;1137;-82
2022/05/12 03:34:04;;;;;;;;;;;26.50;44.80;;;;;;847634;23;1905;-82
2022/05/12 03:36:22;;;;;;;;;;;24.50;44.70;;;;;;853381;23;1491;-81
2022/05/12 03:36:51;;;;;;;;;;;24.80;43.60;;;;;;855220;23;1261;-86
2022/05/12 03:37:13;;;;;;;;;;;23.90;43.20;;;;;;851439;23;1353;-82
2022/05/12 03:37:41;;;;;;;;;;;24.60;45.70;;;;;;851676;23;1102;-83
2022/05/12 03:38:09;;;;;;;;;;;24.50;45.20;;;;;;843656;23;1251;-84
2022/05/12 03:40:18;;;;;;;;;;;24.50;43.40;;;;;;859430;22;1956;-88
2022/05/12 03:41:11;;;;;;;;;;;24.50;43.40;;;;;;854800;23;1109;-82
2022/05/12 03:41:40;;;;;;;;;;;26.00;44.50;;;;;;851793;23;1524;-81
2022/05/12 03:42:12;;;;;;;;;;;25.70;44.20;;;;;;848341;23;1195;-80
2022/05/12 03:43:01;;;;;;;;;;;24.50;43.30;;;;;;848131;23;1192;-81
2022/05/12 03:44:59;;;;;;;;;;;24.60;45.10;;;;;;856764;23;906;-85
2022/05/12 03:46:13;;;;;;;;;;;24.70;43.50;;;;;;852594;23;652;-80
2022/05/12 03:47:05;;;;;;;;;;;24.50;44.60;;;;;;846627;23;1231;-81
2022/05/12 03:47:50;;;;;;;;;;;24.60;43.30;;;;;;842715;23;1346;-93
2022/05/12 03:48:46;;;;;;;;;;;24.50;45.30;;;;;;858753;22;1820;-82
2022/05/12 03:49:27;;;;;;;;;;;24.60;44.70;;;;;;854266;23;1535;-82
2022/05/12 03:49:54;;;;;;;;;;;23.80;42.80;;;;;;847421;23;1247;-83
2022/05/12 03:50:22;;;;;;;;;;;24.60;43.60;;;;;;851924;23;1332;-84
2022/05/12 03:51:44;;;;;;;;;;;25.60;44.10;;;;;;857110;23;568;-83
2022/05/12 03:52:13;;;;;;;;;;;24.40;44.50;;;;;;852420;23;1146;-82
2022/05/12 03:52:37;;;;;;;;;;;24.50;45.80;;;;;;848968;23;1151;-82
2022/05/12 03:53:00;;;;;;;;;;;24.30;44.10;;;;;;848172;23;1204;-83
2022/05/12 03:54:17;;;;;;;;;;;24.50;43.40;;;;;;856721;23;1212;-83
2022/05/12 03:54:44;;;;;;;;;;;24.60;43.40;;;;;;852195;23;1250;-87
2022/05/12 03:55:20;;;;;;;;;;;25.10;43.80;;;;;;847658;23;1289;-83
2022/05/12 03:55:44;;;;;;;;;;;22.40;42.20;;;;;;851886;23;1322;-82
2022/05/12 03:56:08;;;;;;;;;;;24.50;44.50;;;;;;852044;23;1204;-83
2022/05/12 03:57:40;;;;;;;;;;;24.50;43.40;;;;;;862684;22;1851;-83
2022/05/12 03:58:11;;;;;;;;;;;24.50;43.50;;;;;;854915;23;1131;-81
2022/05/12 03:58:56;;;;;;;;;;;24.50;44.60;;;;;;856711;23;1268;-81
2022/05/12 03:59:25;;;;;;;;;;;25.30;44.00;;;;;;852466;23;1220;-87
2022/05/12 03:59:49;;;;;;;;;;;24.40;46.70;;;;;;852621;23;1226;-80
2022/05/12 04:00:19;;;;;;;;;;;24.50;44.90;;;;;;853857;23;1381;-81
2022/05/12 04:00:40;;;;;;;;;;;24.50;44.70;;;;;;852509;23;1325;-84
2022/05/12 04:01:11;;;;;;;;;;;24.40;45.90;;;;;;852941;23;1287;-83
2022/05/12 04:03:31;;;;;;;;;;;24.50;43.60;;;;;;858023;22;1789;-80
2022/05/12 04:04:10;;;;;;;;;;;24.50;43.60;;;;;;857970;23;1254;-81
2022/05/12 04:04:47;;;;;;;;;;;24.40;43.60;;;;;;859017;22;1839;-81
2022/05/12 04:05:11;;;;;;;;;;;24.40;43.60;;;;;;860387;23;1253;-82
2022/05/12 04:05:50;;;;;;;;;;;;;;;;;;;;;
2022/05/12 04:06:25;;;;;;;;;;;24.50;45.60;;;;;;860433;23;1593;-90
2022/05/12 04:07:21;;;;;;;;;;;24.60;43.80;;;;;;847510;23;1358;-80
2022/05/12 04:07:56;;;;;;;;;;;26.10;44.70;;;;;;827583;23;1295;-81
2022/05/12 04:08:44;;;;;;;;;;;23.30;43.10;;;;;;832465;23;1159;-87
2022/05/12 04:09:10;;;;;;;;;;;24.40;45.30;;;;;;831989;23;1071;-80
2022/05/12 04:09:34;;;;;;;;;;;24.40;44.90;;;;;;831486;23;1417;-81
2022/05/12 04:10:14;;;;;;;;;;;24.40;46.10;;;;;;830628;23;1250;-91
2022/05/12 04:11:02;;;;;;;;;;;24.50;43.80;;;;;;830070;23;1159;-84
2022/05/12 04:11:57;;;;;;;;;;;23.90;43.50;;;;;;851546;22;1929;-84
2022/05/12 04:12:25;;;;;;;;;;;25.10;44.10;;;;;;847671;23;1243;-84
2022/05/12 04:12:54;;;;;;;;;;;24.40;43.50;;;;;;848493;23;1211;-81
2022/05/12 04:13:20;;;;;;;;;;;24.30;45.40;;;;;;847625;23;1277;-81
2022/05/12 04:13:49;;;;;;;;;;;23.60;43.00;;;;;;847025;23;1321;-82
2022/05/12 04:14:15;;;;;;;;;;;24.40;45.10;;;;;;846022;23;1306;-81
2022/05/12 04:14:44;;;;;;;;;;;24.30;46.20;;;;;;848012;23;1199;-92
2022/05/12 04:15:15;;;;;;;;;;;25.60;44.30;;;;;;842542;23;1190;-82
2022/05/12 04:15:38;;;;;;;;;;;24.30;45.10;;;;;;842901;23;1355;-81
2022/05/12 04:16:08;;;;;;;;;;;24.30;45.60;;;;;;839879;23;1236;-81
2022/05/12 04:17:03;;;;;;;;;;;24.40;43.80;;;;;;847005;22;1851;-82
2022/05/12 04:18:01;;;;;;;;;;;23.40;43.10;;;;;;851465;23;1179;-94
2022/05/12 04:18:56;;;;;;;;;;;23.90;43.40;;;;;;856276;23;1886;31
2022/05/12 04:19:34;;;;;;;;;;;24.40;43.70;;;;;;846430;23;1110;-84
2022/05/12 04:20:06;;;;;;;;;;;24.30;43.50;;;;;;843637;23;1232;-87
2022/05/12 04:20:36;;;;;;;;;;;24.10;43.30;;;;;;842189;23;1316;-81
2022/05/12 04:21:01;;;;;;;;;;;24.30;45.60;;;;;;844476;23;1524;-82
2022/05/12 04:22:00;;;;;;;;;;;24.30;43.40;;;;;;859282;22;1691;-82
2022/05/12 04:22:30;;;;;;;;;;;24.40;46.50;;;;;;858393;23;1290;-82
2022/05/12 04:22:58;;;;;;;;;;;24.40;43.80;;;;;;853460;23;1327;-82
2022/05/12 04:24:03;;;;;;;;;;;24.40;43.30;;;;;;852048;23;1599;-82
2022/05/12 04:24:29;;;;;;;;;;;23.30;42.80;;;;;;851823;23;1221;-82
2022/05/12 04:24:54;;;;;;;;;;;24.40;43.70;;;;;;848474;23;1374;-84
2022/05/12 04:25:20;;;;;;;;;;;24.20;44.50;;;;;;844179;23;1161;-82
2022/05/12 04:26:05;;;;;;;;;;;24.30;44.90;;;;;;845297;23;1145;-94
2022/05/12 04:27:22;;;;;;;;;;;24.30;43.60;;;;;;860896;23;1267;-94
2022/05/12 04:27:50;;;;;;;;;;;25.30;44.20;;;;;;848770;23;1354;-87
2022/05/12 04:28:21;;;;;;;;;;;24.30;44.90;;;;;;849121;23;1404;-82
2022/05/12 04:28:47;;;;;;;;;;;24.30;46.40;;;;;;847216;23;1410;-82
2022/05/12 04:29:11;;;;;;;;;;;26.60;45.20;;;;;;840121;23;1201;-89
2022/05/12 04:29:34;;;;;;;;;;;24.30;47.80;;;;;;841758;23;1448;-82
2022/05/12 04:30:13;;;;;;;;;;;24.30;46.60;;;;;;841363;23;1124;-93
2022/05/12 04:30:34;;;;;;;;;;;24.40;43.70;;;;;;838360;23;1303;-82
2022/05/12 04:31:07;;;;;;;;;;;24.30;46.90;;;;;;838413;23;1195;-84
2022/05/12 04:31:51;;;;;;;;;;;24.30;43.30;;;;;;836245;23;1309;-82
2022/05/12 04:37:41;;;;;;;;;;;24.30;43.70;;;;;;857328;23;1297;-89
2022/05/12 04:38:02;;;;;;;;;;;25.40;46.60;;;;;;851524;23;1426;-92
2022/05/12 04:39:22;;;;;;;;;;;24.30;43.60;;;;;;844707;23;1342;-90
2022/05/12 04:40:05;;;;;;;;;;;24.30;43.40;;;;;;840918;23;1228;-86
2022/05/12 04:40:32;;;;;;;;;;;24.80;44.80;;;;;;840774;23;1554;-83
2022/05/12 04:45:17;;;;;;;;;;;24.30;43.80;;;;;;859492;22;1689;-86
2022/05/12 04:45:53;;;;;;;;;;;24.30;43.80;;;;;;850166;23;1125;-90
2022/05/12 04:46:21;;;;;;;;;;;23.70;43.50;;;;;;847311;23;1226;-83
2022/05/12 04:47:32;;;;;;;;;;;24.40;43.80;;;;;;846141;23;2165;-82
2022/05/12 05:03:35;;;;;;;;;;;24.30;44.00;;;;;;860991;23;1268;-85
2022/05/12 05:04:03;;;;;;;;;;;24.30;43.90;;;;;;852958;23;1261;-83
2022/05/12 05:06:40;;;;;;;;;;;25.80;44.70;;;;;;594222;27;16041508;-83
2022/05/12 05:07:08;;;;;;;;;;;25.00;44.30;;;;;;712083;27;1265;-85
2022/05/12 05:08:05;;;;;;;;;;;24.40;46.10;;;;;;709758;27;1312;-93
2022/05/12 05:08:51;;;;;;;;;;;24.40;43.80;;;;;;715118;22;1658;-85
2022/05/12 05:09:26;;;;;;;;;;;24.30;46.50;;;;;;693850;28;1243;-85
2022/05/12 05:09:52;;;;;;;;;;;24.40;43.70;;;;;;693098;28;1456;-84
2022/05/12 05:10:20;;;;;;;;;;;23.90;43.60;;;;;;693907;28;1074;-83
2022/05/12 05:12:06;;;;;;;;;;;23.40;43.60;;;;;;694055;28;625;-95
2022/05/12 05:13:08;;;;;;;;;;;24.40;44.70;;;;;;696723;28;1563;-88
2022/05/12 05:13:40;;;;;;;;;;;24.20;44.50;;;;;;707547;22;1914;-84
2022/05/12 05:14:20;;;;;;;;;;;;;;;;;;;;;
2022/05/12 05:14:53;;;;;;;;;;;24.70;45.30;;;;;;704816;22;1813;-81
2022/05/12 05:15:29;;;;;;;;;;;24.50;47.30;;;;;;696625;28;1302;-82
2022/05/12 05:16:49;;;;;;;;;;;25.60;46.90;;;;;;699125;28;675;-82
2022/05/12 05:17:39;;;;;;;;;;;24.50;51.00;;;;;;697963;28;1347;-82
2022/05/12 05:18:09;;;;;;;;;;;24.50;45.70;;;;;;698596;28;1251;-83
2022/05/12 05:18:45;;;;;;;;;;;24.50;47.50;;;;;;697664;28;1284;-82
2022/05/12 05:19:16;;;;;;;;;;;24.60;45.70;;;;;;698076;28;1422;-84
2022/05/12 05:19:52;;;;;;;;;;;24.60;47.60;;;;;;695929;28;1292;-93
2022/05/12 05:20:34;;;;;;;;;;;24.50;45.50;;;;;;698408;28;1177;-82
2022/05/12 05:20:55;;;;;;;;;;;24.50;48.10;;;;;;697269;28;1164;-84
2022/05/12 05:23:23;;;;;;;;;;;27.30;47.00;;;;;;700842;28;1057;-82
2022/05/12 05:24:03;;;;;;;;;;;24.70;44.90;;;;;;698732;28;1484;-82
2022/05/12 05:24:57;;;;;;;;;;;24.50;44.50;;;;;;278054;26;1905;-83
2022/05/12 05:25:21;;;;;;;;;;;24.50;48.40;;;;;;692533;28;1787;-83
2022/05/12 05:26:14;;;;;;;;;;;24.60;46.80;;;;;;690038;28;1346;-85
2022/05/12 05:26:40;;;;;;;;;;;23.80;44.10;;;;;;687770;28;1141;-84
2022/05/12 05:27:02;;;;;;;;;;;24.00;44.30;;;;;;684198;28;1108;-83
2022/05/12 05:28:04;;;;;;;;;;;24.50;44.50;;;;;;808108;23;1589;-89
2022/05/12 05:28:39;;;;;;;;;;;24.80;44.70;;;;;;690662;28;1874;-82
2022/05/12 05:29:08;;;;;;;;;;;26.30;45.80;;;;;;693224;28;1101;-85
2022/05/12 05:29:41;;;;;;;;;;;24.50;46.30;;;;;;697335;28;1429;-91
2022/05/12 05:30:02;;;;;;;;;;;24.50;44.50;;;;;;692932;28;1361;-83
2022/05/12 05:30:54;;;;;;;;;;;24.50;44.40;;;;;;714314;22;1615;-80
2022/05/12 05:31:32;;;;;;;;;;;24.60;45.10;;;;;;692930;28;1107;-81
2022/05/12 05:31:56;;;;;;;;;;;24.60;46.10;;;;;;688871;28;1355;-83
2022/05/12 05:32:19;;;;;;;;;;;25.50;44.80;;;;;;692942;28;1355;-83
2022/05/12 05:33:00;;;;;;;;;;;;;;;;;;;;;
2022/05/12 05:33:49;;;;;;;;;;;24.70;46.50;;;;;;691529;28;1202;-88
2022/05/12 05:35:12;;;;;;;;;;;22.10;43.10;;;;;;693846;28;1305;-84
2022/05/12 05:35:35;;;;;;;;;;;24.80;44.60;;;;;;690296;28;1244;-86
2022/05/12 05:36:03;;;;;;;;;;;23.80;45.70;;;;;;690570;28;1211;-82
2022/05/12 05:38:13;;;;;;;;;;;24.60;44.50;;;;;;697967;28;1304;-91
2022/05/12 05:38:46;;;;;;;;;;;24.70;46.80;;;;;;697319;28;1284;-82
2022/05/12 05:39:07;;;;;;;;;;;25.50;45.20;;;;;;695718;28;1494;-81
2022/05/12 05:39:30;;;;;;;;;;;24.70;48.10;;;;;;695262;28;1234;-87
2022/05/12 05:39:56;;;;;;;;;;;22.20;47.70;;;;;;695914;28;1446;-82